CheckWX is a tool to help pilots better visualize weather data.  It is not intended as a substitute for an official pre-flight weather briefing.

22:33:15 UTC

GOSS METAR
Saint Louis Airport
Saint Louis, Senegal
Current

2 hours ago

GOSS 262100Z 36008KT CAVOK 20/17 Q1013
Observed
Mar-26 @ 21:00 UTC
Wind
  • 360° at 8 KTS
Visibility
10,000+ meters
Flight Rules
VFR
Cloud Levels
  • Clear skies
Temperature
20°C / 68°F
Dewpoint
17°C / 63°F
Humidity
83%
Altimeter
29.91" Hg
Pressure
1012.92 hPa
Previous

3 hours ago

GOSS 262000Z 36008KT 9999 SCT010 20/17 Q1013
Observed
Mar-26 @ 20:00 UTC
Wind
  • 360° at 8 KTS
Visibility
10,000+ meters
Flight Rules
VFR
Cloud Levels
  • Scattered at 1,000' AGL
Temperature
20°C / 68°F
Dewpoint
17°C / 63°F
Humidity
83%
Altimeter
29.91" Hg
Pressure
1012.92 hPa
Previous

5 hours ago

GOSS 261800Z 36010KT CAVOK 24/15 Q1012
Observed
Mar-26 @ 18:00 UTC
Wind
  • 360° at 10 KTS
Visibility
10,000+ meters
Flight Rules
VFR
Cloud Levels
  • Clear skies
Temperature
24°C / 75°F
Dewpoint
15°C / 59°F
Humidity
57%
Altimeter
29.88" Hg
Pressure
1011.92 hPa